sensor_id;sensor_type;location;lat;lon;timestamp;pressure;altitude;pressure_sealevel;temperature;humidity
61571;BME280;47463;49.884;10.010;2023-02-19T00:00:01;102290;;;9.3;82
61571;BME280;47463;49.884;10.010;2023-02-19T00:05:01;102280;;;9.3;82
61571;BME280;47463;49.884;10.010;2023-02-19T00:10:01;102290;;;9.2;83
61571;BME280;47463;49.884;10.010;2023-02-19T00:15:01;102280;;;9.2;83
61571;BME280;47463;49.884;10.010;2023-02-19T00:20:01;102270;;;9.2;83
61571;BME280;47463;49.884;10.010;2023-02-19T00:25:01;102270;;;9.1;84
61571;BME280;47463;49.884;10.010;2023-02-19T00:30:01;102270;;;9.1;84
61571;BME280;47463;49.884;10.010;2023-02-19T00:35:01;102260;;;9.1;83
61571;BME280;47463;49.884;10.010;2023-02-19T00:40:01;102260;;;9;84
61571;BME280;47463;49.884;10.010;2023-02-19T00:45:01;102240;;;9;84
61571;BME280;47463;49.884;10.010;2023-02-19T00:50:01;102240;;;8.9;85
61571;BME280;47463;49.884;10.010;2023-02-19T00:55:01;102250;;;8.9;85
61571;BME280;47463;49.884;10.010;2023-02-19T01:00:01;102240;;;8.8;85
61571;BME280;47463;49.884;10.010;2023-02-19T01:05:01;102230;;;8.8;85
61571;BME280;47463;49.884;10.010;2023-02-19T01:10:01;102230;;;8.8;86
61571;BME280;47463;49.884;10.010;2023-02-19T01:15:01;102200;;;8.8;86
61571;BME280;47463;49.884;10.010;2023-02-19T01:20:01;102220;;;8.8;86
61571;BME280;47463;49.884;10.010;2023-02-19T01:25:01;102200;;;8.7;86
61571;BME280;47463;49.884;10.010;2023-02-19T01:30:01;102210;;;8.7;86
61571;BME280;47463;49.884;10.010;2023-02-19T01:35:01;102210;;;8.7;87
61571;BME280;47463;49.884;10.010;2023-02-19T01:40:01;102210;;;8.8;86
61571;BME280;47463;49.884;10.010;2023-02-19T01:50:01;102190;;;8.7;87
61571;BME280;47463;49.884;10.010;2023-02-19T01:55:01;102190;;;8.7;87
61571;BME280;47463;49.884;10.010;2023-02-19T02:00:02;102170;;;8.7;87
61571;BME280;47463;49.884;10.010;2023-02-19T02:05:01;102180;;;8.8;87
61571;BME280;47463;49.884;10.010;2023-02-19T02:10:01;102170;;;8.8;86
61571;BME280;47463;49.884;10.010;2023-02-19T02:15:01;102150;;;8.9;86
61571;BME280;47463;49.884;10.010;2023-02-19T02:20:03;102150;;;9;85
61571;BME280;47463;49.884;10.010;2023-02-19T02:25:09;102150;;;9;85
61571;BME280;47463;49.884;10.010;2023-02-19T02:30:04;102150;;;9;85
61571;BME280;47463;49.884;10.010;2023-02-19T02:35:02;102130;;;9.1;85
61571;BME280;47463;49.884;10.010;2023-02-19T02:40:01;102140;;;9.1;85
61571;BME280;47463;49.884;10.010;2023-02-19T02:45:14;102140;;;9.1;85
61571;BME280;47463;49.884;10.010;2023-02-19T02:50:01;102140;;;9.1;85
61571;BME280;47463;49.884;10.010;2023-02-19T02:55:01;102130;;;9.1;85
61571;BME280;47463;49.884;10.010;2023-02-19T03:00:01;102110;;;9.1;85
61571;BME280;47463;49.884;10.010;2023-02-19T03:05:01;102110;;;9.1;85
61571;BME280;47463;49.884;10.010;2023-02-19T03:10:01;102110;;;9.1;85
61571;BME280;47463;49.884;10.010;2023-02-19T03:15:02;102100;;;9.1;85
61571;BME280;47463;49.884;10.010;2023-02-19T03:20:02;102100;;;9;85
61571;BME280;47463;49.884;10.010;2023-02-19T03:25:02;102110;;;9;85
61571;BME280;47463;49.884;10.010;2023-02-19T03:30:02;102100;;;9;85
61571;BME280;47463;49.884;10.010;2023-02-19T03:35:01;102110;;;9;85
61571;BME280;47463;49.884;10.010;2023-02-19T03:40:01;102090;;;9.1;85
61571;BME280;47463;49.884;10.010;2023-02-19T03:45:06;102090;;;9;85
61571;BME280;47463;49.884;10.010;2023-02-19T03:50:02;102090;;;9;85
61571;BME280;47463;49.884;10.010;2023-02-19T03:55:02;102080;;;9;85
61571;BME280;47463;49.884;10.010;2023-02-19T04:00:02;102090;;;9;85
61571;BME280;47463;49.884;10.010;2023-02-19T04:05:02;102070;;;8.9;85
61571;BME280;47463;49.884;10.010;2023-02-19T04:10:01;102070;;;8.9;85
61571;BME280;47463;49.884;10.010;2023-02-19T04:15:01;102070;;;8.9;85
61571;BME280;47463;49.884;10.010;2023-02-19T04:20:01;102070;;;8.9;85
61571;BME280;47463;49.884;10.010;2023-02-19T04:25:01;102080;;;8.9;85
61571;BME280;47463;49.884;10.010;2023-02-19T04:30:01;102080;;;8.9;85
61571;BME280;47463;49.884;10.010;2023-02-19T04:35:01;102100;;;8.9;85
61571;BME280;47463;49.884;10.010;2023-02-19T04:40:01;102100;;;8.8;86
61571;BME280;47463;49.884;10.010;2023-02-19T04:45:01;102090;;;8.7;87
61571;BME280;47463;49.884;10.010;2023-02-19T04:50:01;102110;;;8.6;88
61571;BME280;47463;49.884;10.010;2023-02-19T04:55:01;102110;;;8.7;87
61571;BME280;47463;49.884;10.010;2023-02-19T05:00:01;102100;;;8.8;86
61571;BME280;47463;49.884;10.010;2023-02-19T05:05:01;102110;;;8.8;86
61571;BME280;47463;49.884;10.010;2023-02-19T05:10:01;102120;;;8.7;87
61571;BME280;47463;49.884;10.010;2023-02-19T05:15:01;102110;;;8.7;86
61571;BME280;47463;49.884;10.010;2023-02-19T05:20:01;102120;;;8.7;86
61571;BME280;47463;49.884;10.010;2023-02-19T05:25:01;102130;;;8.6;87
61571;BME280;47463;49.884;10.010;2023-02-19T05:30:01;102130;;;8.5;88
61571;BME280;47463;49.884;10.010;2023-02-19T05:35:01;102140;;;8.5;88
61571;BME280;47463;49.884;10.010;2023-02-19T05:40:01;102140;;;8.4;89
61571;BME280;47463;49.884;10.010;2023-02-19T05:45:01;102130;;;8.4;89
61571;BME280;47463;49.884;10.010;2023-02-19T05:50:01;102150;;;8.4;89
61571;BME280;47463;49.884;10.010;2023-02-19T05:55:01;102150;;;8.3;90
61571;BME280;47463;49.884;10.010;2023-02-19T06:00:01;102150;;;8.3;90
61571;BME280;47463;49.884;10.010;2023-02-19T06:05:01;102160;;;8.3;90
61571;BME280;47463;49.884;10.010;2023-02-19T06:10:01;102170;;;8.3;90
61571;BME280;47463;49.884;10.010;2023-02-19T06:15:01;102170;;;8.3;90
61571;BME280;47463;49.884;10.010;2023-02-19T06:20:01;102170;;;8.3;90
61571;BME280;47463;49.884;10.010;2023-02-19T06:25:01;102170;;;8.4;89
61571;BME280;47463;49.884;10.010;2023-02-19T06:30:01;102180;;;8.4;88
61571;BME280;47463;49.884;10.010;2023-02-19T06:35:01;102170;;;8.5;88
61571;BME280;47463;49.884;10.010;2023-02-19T06:40:01;102170;;;8.5;87
61571;BME280;47463;49.884;10.010;2023-02-19T06:45:01;102180;;;8.6;87
61571;BME280;47463;49.884;10.010;2023-02-19T06:50:01;102190;;;8.7;86
61571;BME280;47463;49.884;10.010;2023-02-19T06:55:01;102200;;;8.7;86
61571;BME280;47463;49.884;10.010;2023-02-19T07:00:01;102200;;;8.7;86
61571;BME280;47463;49.884;10.010;2023-02-19T07:05:01;102200;;;8.7;85
61571;BME280;47463;49.884;10.010;2023-02-19T07:10:01;102220;;;8.8;85
61571;BME280;47463;49.884;10.010;2023-02-19T07:15:01;102230;;;8.8;85
61571;BME280;47463;49.884;10.010;2023-02-19T07:20:01;102250;;;8.8;85
61571;BME280;47463;49.884;10.010;2023-02-19T07:25:01;102260;;;8.8;85
61571;BME280;47463;49.884;10.010;2023-02-19T07:30:01;102250;;;8.8;85
61571;BME280;47463;49.884;10.010;2023-02-19T07:35:01;102260;;;8.9;84
61571;BME280;47463;49.884;10.010;2023-02-19T07:40:01;102270;;;8.9;84
61571;BME280;47463;49.884;10.010;2023-02-19T07:45:01;102270;;;9;83
61571;BME280;47463;49.884;10.010;2023-02-19T07:50:01;102280;;;9;83
61571;BME280;47463;49.884;10.010;2023-02-19T07:55:01;102290;;;9;83
61571;BME280;47463;49.884;10.010;2023-02-19T08:00:01;102320;;;9;83
61571;BME280;47463;49.884;10.010;2023-02-19T08:05:01;102320;;;9;83
61571;BME280;47463;49.884;10.010;2023-02-19T08:10:01;102330;;;9;83
61571;BME280;47463;49.884;10.010;2023-02-19T08:15:01;102320;;;9;83
61571;BME280;47463;49.884;10.010;2023-02-19T08:20:01;102330;;;8.9;84
61571;BME280;47463;49.884;10.010;2023-02-19T08:25:01;102340;;;8.8;85
61571;BME280;47463;49.884;10.010;2023-02-19T08:30:01;102350;;;8.7;86
61571;BME280;47463;49.884;10.010;2023-02-19T08:35:01;102360;;;8.7;87
61571;BME280;47463;49.884;10.010;2023-02-19T08:40:01;102370;;;8.8;86
61571;BME280;47463;49.884;10.010;2023-02-19T08:45:01;102380;;;8.8;86
61571;BME280;47463;49.884;10.010;2023-02-19T08:50:01;102380;;;8.9;85
61571;BME280;47463;49.884;10.010;2023-02-19T08:55:01;102390;;;8.9;85
61571;BME280;47463;49.884;10.010;2023-02-19T09:00:01;102400;;;8.9;86
61571;BME280;47463;49.884;10.010;2023-02-19T09:05:01;102409.99999999999;;;8.9;86
61571;BME280;47463;49.884;10.010;2023-02-19T09:10:01;102420;;;8.9;86
61571;BME280;47463;49.884;10.010;2023-02-19T09:15:01;102420;;;9;86
61571;BME280;47463;49.884;10.010;2023-02-19T09:20:01;102420;;;9;86
61571;BME280;47463;49.884;10.010;2023-02-19T09:25:01;102420;;;9;85
61571;BME280;47463;49.884;10.010;2023-02-19T09:30:01;102409.99999999999;;;9.3;85
61571;BME280;47463;49.884;10.010;2023-02-19T09:35:01;102430;;;9.3;86
61571;BME280;47463;49.884;10.010;2023-02-19T09:40:01;102420;;;9.3;86
61571;BME280;47463;49.884;10.010;2023-02-19T09:45:01;102430;;;9.2;87
61571;BME280;47463;49.884;10.010;2023-02-19T09:50:04;102430;;;9.2;86
61571;BME280;47463;49.884;10.010;2023-02-19T09:55:01;102420;;;9.2;86
61571;BME280;47463;49.884;10.010;2023-02-19T10:00:03;102440.00000000001;;;9.2;85
61571;BME280;47463;49.884;10.010;2023-02-19T10:05:01;102450;;;9.4;85
61571;BME280;47463;49.884;10.010;2023-02-19T10:10:01;102459.99999999999;;;9.4;84
61571;BME280;47463;49.884;10.010;2023-02-19T10:15:03;102459.99999999999;;;9.4;83
61571;BME280;47463;49.884;10.010;2023-02-19T10:20:01;102440.00000000001;;;9.3;83
61571;BME280;47463;49.884;10.010;2023-02-19T10:25:01;102450;;;9.4;83
61571;BME280;47463;49.884;10.010;2023-02-19T10:30:01;102490.00000000001;;;9.5;82
61571;BME280;47463;49.884;10.010;2023-02-19T10:35:09;102480;;;9.6;81
61571;BME280;47463;49.884;10.010;2023-02-19T10:40:01;102490.00000000001;;;9.6;82
61571;BME280;47463;49.884;10.010;2023-02-19T10:45:01;102500;;;9.4;82
61571;BME280;47463;49.884;10.010;2023-02-19T10:50:01;102509.99999999999;;;9.4;82
61571;BME280;47463;49.884;10.010;2023-02-19T10:55:13;102520;;;9.4;83
61571;BME280;47463;49.884;10.010;2023-02-19T11:00:02;102509.99999999999;;;9.4;84
61571;BME280;47463;49.884;10.010;2023-02-19T11:05:02;102530;;;9.3;84
61571;BME280;47463;49.884;10.010;2023-02-19T11:10:01;102530;;;9.2;84
61571;BME280;47463;49.884;10.010;2023-02-19T11:15:03;102530;;;9.3;84
61571;BME280;47463;49.884;10.010;2023-02-19T11:20:01;102530;;;9.3;84
61571;BME280;47463;49.884;10.010;2023-02-19T11:25:02;102550;;;9.4;84
61571;BME280;47463;49.884;10.010;2023-02-19T11:30:19;102550;;;9.4;83
61571;BME280;47463;49.884;10.010;2023-02-19T11:35:17;102550;;;9.5;83
61571;BME280;47463;49.884;10.010;2023-02-19T11:40:01;102540.00000000001;;;9.6;82
61571;BME280;47463;49.884;10.010;2023-02-19T11:45:06;102559.99999999999;;;9.6;81
61571;BME280;47463;49.884;10.010;2023-02-19T11:50:01;102550;;;9.6;81
61571;BME280;47463;49.884;10.010;2023-02-19T11:55:03;102559.99999999999;;;9.6;82
61571;BME280;47463;49.884;10.010;2023-02-19T12:00:03;102570;;;9.6;81
61571;BME280;47463;49.884;10.010;2023-02-19T12:06:09;102559.99999999999;;;9.7;82
61571;BME280;47463;49.884;10.010;2023-02-19T12:10:02;102559.99999999999;;;9.6;82
61571;BME280;47463;49.884;10.010;2023-02-19T12:15:12;102559.99999999999;;;9.6;82
61571;BME280;47463;49.884;10.010;2023-02-19T12:20:02;102559.99999999999;;;9.7;81
61571;BME280;47463;49.884;10.010;2023-02-19T12:25:06;102570;;;9.7;79
61571;BME280;47463;49.884;10.010;2023-02-19T12:30:07;102559.99999999999;;;9.8;80
61571;BME280;47463;49.884;10.010;2023-02-19T12:35:07;102559.99999999999;;;9.8;80
61571;BME280;47463;49.884;10.010;2023-02-19T12:40:09;102559.99999999999;;;9.9;80
61571;BME280;47463;49.884;10.010;2023-02-19T12:45:01;102570;;;9.7;79
61571;BME280;47463;49.884;10.010;2023-02-19T12:50:02;102570;;;9.6;79
61571;BME280;47463;49.884;10.010;2023-02-19T12:55:03;102570;;;9.7;80
61571;BME280;47463;49.884;10.010;2023-02-19T13:00:02;102570;;;9.8;80
61571;BME280;47463;49.884;10.010;2023-02-19T13:05:01;102580;;;9.7;79
61571;BME280;47463;49.884;10.010;2023-02-19T13:10:03;102590.00000000001;;;9.8;78
61571;BME280;47463;49.884;10.010;2023-02-19T13:15:02;102570;;;9.9;78
61571;BME280;47463;49.884;10.010;2023-02-19T13:20:02;102559.99999999999;;;9.9;78
61571;BME280;47463;49.884;10.010;2023-02-19T13:25:01;102550;;;9.9;77
61571;BME280;47463;49.884;10.010;2023-02-19T13:30:04;102550;;;9.9;76
61571;BME280;47463;49.884;10.010;2023-02-19T13:35:18;102540.00000000001;;;9.8;76
61571;BME280;47463;49.884;10.010;2023-02-19T13:40:02;102550;;;9.8;77
61571;BME280;47463;49.884;10.010;2023-02-19T13:45:01;102559.99999999999;;;9.9;76
61571;BME280;47463;49.884;10.010;2023-02-19T13:50:03;102550;;;10.1;75
61571;BME280;47463;49.884;10.010;2023-02-19T13:55:42;102559.99999999999;;;10.2;74
61571;BME280;47463;49.884;10.010;2023-02-19T14:00:01;102559.99999999999;;;10.3;74
61571;BME280;47463;49.884;10.010;2023-02-19T14:05:03;102570;;;10.2;75
61571;BME280;47463;49.884;10.010;2023-02-19T14:10:01;102580;;;10.2;75
61571;BME280;47463;49.884;10.010;2023-02-19T14:15:36;102590.00000000001;;;10.1;75
61571;BME280;47463;49.884;10.010;2023-02-19T14:20:01;102600;;;10.1;75
61571;BME280;47463;49.884;10.010;2023-02-19T14:25:01;102609.99999999999;;;10;76
61571;BME280;47463;49.884;10.010;2023-02-19T14:30:01;102600;;;10;76
61571;BME280;47463;49.884;10.010;2023-02-19T14:35:01;102590.00000000001;;;10;76
61571;BME280;47463;49.884;10.010;2023-02-19T14:40:01;102609.99999999999;;;10;76
61571;BME280;47463;49.884;10.010;2023-02-19T14:45:02;102620;;;9.9;76
61571;BME280;47463;49.884;10.010;2023-02-19T14:50:01;102630;;;9.9;77
61571;BME280;47463;49.884;10.010;2023-02-19T14:55:02;102640.00000000001;;;9.8;78
61571;BME280;47463;49.884;10.010;2023-02-19T15:00:03;102640.00000000001;;;9.8;78
61571;BME280;47463;49.884;10.010;2023-02-19T15:05:01;102640.00000000001;;;9.6;79
61571;BME280;47463;49.884;10.010;2023-02-19T15:10:01;102640.00000000001;;;9.6;81
61571;BME280;47463;49.884;10.010;2023-02-19T15:15:02;102640.00000000001;;;9.5;81
61571;BME280;47463;49.884;10.010;2023-02-19T15:20:02;102640.00000000001;;;9.4;81
61571;BME280;47463;49.884;10.010;2023-02-19T15:25:01;102630;;;9.6;80
61571;BME280;47463;49.884;10.010;2023-02-19T15:30:01;102620;;;9.6;79
61571;BME280;47463;49.884;10.010;2023-02-19T15:35:01;102630;;;9.6;78
61571;BME280;47463;49.884;10.010;2023-02-19T15:40:02;102630;;;9.6;78
61571;BME280;47463;49.884;10.010;2023-02-19T15:45:02;102630;;;9.5;78
61571;BME280;47463;49.884;10.010;2023-02-19T15:50:03;102640.00000000001;;;9.5;79
61571;BME280;47463;49.884;10.010;2023-02-19T15:55:04;102650;;;9.5;79
61571;BME280;47463;49.884;10.010;2023-02-19T16:00:02;102659.99999999999;;;9.5;79
61571;BME280;47463;49.884;10.010;2023-02-19T16:05:01;102659.99999999999;;;9.4;79
61571;BME280;47463;49.884;10.010;2023-02-19T16:10:05;102670;;;9.4;79
61571;BME280;47463;49.884;10.010;2023-02-19T16:15:10;102670;;;9.4;79
61571;BME280;47463;49.884;10.010;2023-02-19T16:20:01;102670;;;9.3;79
61571;BME280;47463;49.884;10.010;2023-02-19T16:25:01;102680;;;9.3;79
61571;BME280;47463;49.884;10.010;2023-02-19T16:30:01;102670;;;9.2;80
61571;BME280;47463;49.884;10.010;2023-02-19T16:35:01;102670;;;9.2;80
61571;BME280;47463;49.884;10.010;2023-02-19T16:41:10;102659.99999999999;;;9.2;80
61571;BME280;47463;49.884;10.010;2023-02-19T16:45:01;102670;;;9.1;81
61571;BME280;47463;49.884;10.010;2023-02-19T16:50:02;102670;;;9;81
61571;BME280;47463;49.884;10.010;2023-02-19T16:55:01;102690.00000000001;;;9;82
61571;BME280;47463;49.884;10.010;2023-02-19T17:00:01;102680;;;9;81
61571;BME280;47463;49.884;10.010;2023-02-19T17:05:01;102690.00000000001;;;9;80
61571;BME280;47463;49.884;10.010;2023-02-19T17:10:01;102690.00000000001;;;8.9;80
61571;BME280;47463;49.884;10.010;2023-02-19T17:15:01;102709.99999999999;;;8.8;80
61571;BME280;47463;49.884;10.010;2023-02-19T17:20:01;102720;;;8.6;80
61571;BME280;47463;49.884;10.010;2023-02-19T17:25:01;102730;;;8.5;81
61571;BME280;47463;49.884;10.010;2023-02-19T17:30:01;102740.00000000001;;;8.5;80
61571;BME280;47463;49.884;10.010;2023-02-19T17:35:01;102740.00000000001;;;8.4;81
61571;BME280;47463;49.884;10.010;2023-02-19T17:40:01;102759.99999999999;;;8.3;81
61571;BME280;47463;49.884;10.010;2023-02-19T17:45:01;102780;;;8.3;82
61571;BME280;47463;49.884;10.010;2023-02-19T17:50:01;102770;;;8.3;82
61571;BME280;47463;49.884;10.010;2023-02-19T17:55:01;102780;;;8.3;82
61571;BME280;47463;49.884;10.010;2023-02-19T18:00:01;102780;;;8.3;82
61571;BME280;47463;49.884;10.010;2023-02-19T18:05:01;102780;;;8.3;82
61571;BME280;47463;49.884;10.010;2023-02-19T18:10:01;102790.00000000001;;;8.2;82
61571;BME280;47463;49.884;10.010;2023-02-19T18:15:01;102800;;;8.1;83
61571;BME280;47463;49.884;10.010;2023-02-19T18:20:01;102790.00000000001;;;8.1;83
61571;BME280;47463;49.884;10.010;2023-02-19T18:25:01;102800;;;8.2;83
61571;BME280;47463;49.884;10.010;2023-02-19T18:30:01;102820;;;8.2;83
61571;BME280;47463;49.884;10.010;2023-02-19T18:35:01;102820;;;8.2;83
61571;BME280;47463;49.884;10.010;2023-02-19T18:40:01;102820;;;8.1;83
61571;BME280;47463;49.884;10.010;2023-02-19T18:45:01;102830;;;8.1;83
61571;BME280;47463;49.884;10.010;2023-02-19T18:50:01;102830;;;8.1;84
61571;BME280;47463;49.884;10.010;2023-02-19T18:55:01;102830;;;8.1;84
61571;BME280;47463;49.884;10.010;2023-02-19T19:00:01;102830;;;8.1;84
61571;BME280;47463;49.884;10.010;2023-02-19T19:05:01;102830;;;8;85
61571;BME280;47463;49.884;10.010;2023-02-19T19:10:01;102820;;;8;85
61571;BME280;47463;49.884;10.010;2023-02-19T19:15:01;102820;;;8;85
61571;BME280;47463;49.884;10.010;2023-02-19T19:20:01;102820;;;7.9;86
61571;BME280;47463;49.884;10.010;2023-02-19T19:25:01;102840.00000000001;;;7.9;86
61571;BME280;47463;49.884;10.010;2023-02-19T19:30:01;102830;;;7.9;86
61571;BME280;47463;49.884;10.010;2023-02-19T19:35:01;102830;;;7.9;86
61571;BME280;47463;49.884;10.010;2023-02-19T19:40:01;102840.00000000001;;;8;86
61571;BME280;47463;49.884;10.010;2023-02-19T19:45:01;102830;;;7.9;86
61571;BME280;47463;49.884;10.010;2023-02-19T19:50:01;102850;;;7.9;87
61571;BME280;47463;49.884;10.010;2023-02-19T19:55:01;102850;;;7.8;87
61571;BME280;47463;49.884;10.010;2023-02-19T20:00:01;102859.99999999999;;;7.8;87
61571;BME280;47463;49.884;10.010;2023-02-19T20:05:01;102870;;;7.7;88
61571;BME280;47463;49.884;10.010;2023-02-19T20:10:01;102880;;;7.7;88
61571;BME280;47463;49.884;10.010;2023-02-19T20:15:01;102870;;;7.7;88
61571;BME280;47463;49.884;10.010;2023-02-19T20:20:01;102870;;;7.8;87
61571;BME280;47463;49.884;10.010;2023-02-19T20:25:01;102880;;;7.7;87
61571;BME280;47463;49.884;10.010;2023-02-19T20:30:01;102890.00000000001;;;7.7;87
61571;BME280;47463;49.884;10.010;2023-02-19T20:35:01;102890.00000000001;;;7.7;87
61571;BME280;47463;49.884;10.010;2023-02-19T20:40:01;102890.00000000001;;;7.7;87
61571;BME280;47463;49.884;10.010;2023-02-19T20:45:01;102890.00000000001;;;7.7;88
61571;BME280;47463;49.884;10.010;2023-02-19T20:50:01;102900;;;7.7;88
61571;BME280;47463;49.884;10.010;2023-02-19T20:55:01;102900;;;7.6;88
61571;BME280;47463;49.884;10.010;2023-02-19T21:00:01;102900;;;7.6;88
61571;BME280;47463;49.884;10.010;2023-02-19T21:05:01;102900;;;7.6;88
61571;BME280;47463;49.884;10.010;2023-02-19T21:10:01;102900;;;7.6;88
61571;BME280;47463;49.884;10.010;2023-02-19T21:15:01;102909.99999999999;;;7.6;88
61571;BME280;47463;49.884;10.010;2023-02-19T21:20:01;102909.99999999999;;;7.6;88
61571;BME280;47463;49.884;10.010;2023-02-19T21:25:01;102909.99999999999;;;7.5;89
61571;BME280;47463;49.884;10.010;2023-02-19T21:30:01;102900;;;7.6;89
61571;BME280;47463;49.884;10.010;2023-02-19T21:35:01;102900;;;7.6;88
61571;BME280;47463;49.884;10.010;2023-02-19T21:40:01;102920;;;7.6;88
61571;BME280;47463;49.884;10.010;2023-02-19T21:45:01;102900;;;7.6;88
61571;BME280;47463;49.884;10.010;2023-02-19T21:50:01;102920;;;7.5;88
61571;BME280;47463;49.884;10.010;2023-02-19T21:55:01;102920;;;7.5;88
61571;BME280;47463;49.884;10.010;2023-02-19T22:00:01;102930;;;7.5;88
61571;BME280;47463;49.884;10.010;2023-02-19T22:05:01;102940.00000000001;;;7.5;89
61571;BME280;47463;49.884;10.010;2023-02-19T22:10:01;102930;;;7.5;89
61571;BME280;47463;49.884;10.010;2023-02-19T22:15:01;102940.00000000001;;;7.5;89
61571;BME280;47463;49.884;10.010;2023-02-19T22:20:01;102930;;;7.6;89
61571;BME280;47463;49.884;10.010;2023-02-19T22:25:01;102940.00000000001;;;7.6;89
61571;BME280;47463;49.884;10.010;2023-02-19T22:30:01;102950;;;7.5;89
61571;BME280;47463;49.884;10.010;2023-02-19T22:35:01;102970;;;7.5;90
61571;BME280;47463;49.884;10.010;2023-02-19T22:40:01;102980;;;7.4;90
61571;BME280;47463;49.884;10.010;2023-02-19T22:45:01;102970;;;7.3;91
61571;BME280;47463;49.884;10.010;2023-02-19T22:50:01;102970;;;7.2;92
61571;BME280;47463;49.884;10.010;2023-02-19T22:55:01;102970;;;7.2;92
61571;BME280;47463;49.884;10.010;2023-02-19T23:00:01;102980;;;7.2;92
61571;BME280;47463;49.884;10.010;2023-02-19T23:05:01;102980;;;7.1;93
61571;BME280;47463;49.884;10.010;2023-02-19T23:10:01;102950;;;7.1;93
61571;BME280;47463;49.884;10.010;2023-02-19T23:15:01;102959.99999999999;;;7;93
61571;BME280;47463;49.884;10.010;2023-02-19T23:20:01;102959.99999999999;;;7;93
61571;BME280;47463;49.884;10.010;2023-02-19T23:25:01;102950;;;7;93
61571;BME280;47463;49.884;10.010;2023-02-19T23:30:01;102950;;;7.1;93
61571;BME280;47463;49.884;10.010;2023-02-19T23:35:01;102950;;;7.1;92
61571;BME280;47463;49.884;10.010;2023-02-19T23:40:01;102940.00000000001;;;7.1;92
61571;BME280;47463;49.884;10.010;2023-02-19T23:45:01;102950;;;7.1;91
61571;BME280;47463;49.884;10.010;2023-02-19T23:50:01;102950;;;7.2;90
61571;BME280;47463;49.884;10.010;2023-02-19T23:55:01;102970;;;7.1;91
